createdAt,value
2022-12-15T00:02:07.262Z,64.05
2022-12-15T00:04:57.462Z,62.70
2022-12-15T00:07:47.789Z,64.82
2022-12-15T00:10:38.715Z,69.50
2022-12-15T00:13:31.117Z,66.47
2022-12-15T00:16:21.481Z,62.25
2022-12-15T00:19:11.921Z,63.90
2022-12-15T00:22:01.783Z,68.88
2022-12-15T00:24:54.145Z,62.55
2022-12-15T00:27:44.216Z,62.50
2022-12-15T00:30:34.407Z,69.13
2022-12-15T00:33:31.048Z,59.97
2022-12-15T00:36:21.649Z,67.47
2022-12-15T00:38:53.172Z,71.55
2022-12-15T00:41:24.716Z,63.50
2022-12-15T00:43:56.269Z,63.78
2022-12-15T00:46:46.658Z,62.22
2022-12-15T00:49:47.680Z,67.45
2022-12-15T00:52:37.930Z,62.97
2022-12-15T00:55:28.116Z,68.53
2022-12-15T00:58:18.444Z,69.82
2022-12-15T01:01:08.701Z,64.05
2022-12-15T01:03:58.953Z,70.38
2022-12-15T01:06:49.186Z,68.97
2022-12-15T01:09:39.116Z,62.90
2022-12-15T01:12:29.293Z,63.50
2022-12-15T01:15:19.242Z,71.07
2022-12-15T01:18:09.100Z,65.28
2022-12-15T01:20:40.680Z,60.78
2022-12-15T01:23:12.236Z,67.35
2022-12-15T01:25:45.816Z,70.13
2022-12-15T01:28:22.298Z,67.13
2022-12-15T01:30:53.915Z,69.55
2022-12-15T01:33:25.481Z,66.00
2022-12-15T01:35:59.172Z,66.70
2022-12-15T01:38:30.821Z,66.22
2022-12-15T01:41:05.993Z,69.13
2022-12-15T01:43:40.167Z,67.10
2022-12-15T01:46:18.219Z,51.30
2022-12-15T01:49:00.134Z,61.17
2022-12-15T01:51:39.407Z,63.65
2022-12-15T01:54:19.826Z,65.45
2022-12-15T01:56:56.950Z,68.45
2022-12-15T01:59:39.032Z,70.40
2022-12-15T02:02:12.457Z,69.00
2022-12-15T02:04:45.629Z,66.88
2022-12-15T02:07:18.355Z,71.60
2022-12-15T02:09:52.314Z,75.85
2022-12-15T02:12:45.810Z,70.55
2022-12-15T02:15:32.333Z,74.07
2022-12-15T02:18:32.448Z,69.55
2022-12-15T02:21:42.517Z,71.75
2022-12-15T02:24:35.053Z,70.28
2022-12-15T02:27:15.865Z,71.30
2022-12-15T02:30:10.089Z,67.57
2022-12-15T02:32:54.594Z,67.53
2022-12-15T02:35:44.818Z,78.25
2022-12-15T02:38:28.558Z,70.43
2022-12-15T02:41:02.228Z,67.40
2022-12-15T02:43:38.853Z,69.95
2022-12-15T02:46:35.426Z,70.65
2022-12-15T02:49:17.996Z,68.60
2022-12-15T02:51:52.574Z,61.58
2022-12-15T02:54:54.817Z,70.53
2022-12-15T02:57:44.333Z,71.22
2022-12-15T03:00:17.652Z,70.10
2022-12-15T03:02:53.593Z,65.07
2022-12-15T03:05:25.896Z,65.72
2022-12-15T03:07:57.873Z,72.85
2022-12-15T03:10:29.564Z,72.50
2022-12-15T03:13:01.120Z,76.68
2022-12-15T03:15:35.466Z,70.13
2022-12-15T03:20:40.093Z,69.07
2022-12-15T03:23:11.775Z,71.75
2022-12-15T03:25:46.525Z,72.15
2022-12-15T03:28:21.863Z,68.60
2022-12-15T03:30:53.383Z,67.38
2022-12-15T03:33:25.085Z,71.78
2022-12-15T03:35:56.736Z,68.85
2022-12-15T03:38:28.368Z,72.05
2022-12-15T03:40:59.882Z,72.00
2022-12-15T03:43:31.823Z,68.18
2022-12-15T03:46:03.824Z,68.88
2022-12-15T03:48:35.456Z,74.35
2022-12-15T03:51:07.092Z,74.38
2022-12-15T03:53:38.684Z,71.95
2022-12-15T03:56:10.315Z,67.82
2022-12-15T03:58:41.871Z,73.80
2022-12-15T04:01:26.350Z,67.63
2022-12-15T04:04:01.294Z,52.28
2022-12-15T04:06:33.277Z,66.47
2022-12-15T04:09:04.913Z,71.05
2022-12-15T04:11:36.476Z,73.72
2022-12-15T04:14:09.396Z,66.75
2022-12-15T04:16:40.992Z,68.85
2022-12-15T04:19:31.219Z,62.58
2022-12-15T04:22:03.658Z,64.68
2022-12-15T04:24:53.874Z,69.85
2022-12-15T04:27:44.176Z,63.95
2022-12-15T04:30:35.003Z,65.30
2022-12-15T04:33:30.637Z,68.60
2022-12-15T04:36:21.669Z,69.90
2022-12-15T04:39:11.792Z,59.83
2022-12-15T04:42:02.030Z,65.40
2022-12-15T04:44:51.971Z,67.20
2022-12-15T04:47:42.079Z,59.40
2022-12-15T04:50:32.627Z,68.72
2022-12-15T04:53:31.808Z,61.08
2022-12-15T04:56:28.852Z,67.22
2022-12-15T04:59:19.322Z,65.60
2022-12-15T05:02:10.055Z,67.55
2022-12-15T05:05:00.338Z,65.13
2022-12-15T05:07:50.482Z,65.68
2022-12-15T05:10:40.735Z,62.45
2022-12-15T05:13:31.254Z,63.28
2022-12-15T05:16:23.862Z,60.63
2022-12-15T05:19:14.276Z,65.82
2022-12-15T05:22:04.499Z,66.63
2022-12-15T05:24:54.830Z,67.15
2022-12-15T05:27:44.740Z,67.07
2022-12-15T05:30:35.446Z,61.65
2022-12-15T05:33:07.073Z,68.20
2022-12-15T05:35:38.894Z,64.18
2022-12-15T05:38:10.603Z,61.40
2022-12-15T05:40:42.623Z,61.47
2022-12-15T05:43:14.223Z,61.40
2022-12-15T05:45:45.792Z,69.00
2022-12-15T05:48:17.568Z,60.40
2022-12-15T05:50:50.599Z,61.42
2022-12-15T05:53:22.277Z,63.53
2022-12-15T05:56:01.433Z,63.03
2022-12-15T05:58:33.172Z,57.83
2022-12-15T06:01:04.770Z,63.20
2022-12-15T06:03:36.388Z,61.40
2022-12-15T06:06:09.345Z,65.68
2022-12-15T06:08:42.469Z,61.80
2022-12-15T06:11:16.482Z,63.95
2022-12-15T06:13:48.745Z,48.90
2022-12-15T06:16:21.942Z,63.28
2022-12-15T06:18:57.185Z,61.60
2022-12-15T06:21:31.707Z,64.38
2022-12-15T06:24:07.348Z,68.57
2022-12-15T06:26:43.317Z,60.50
2022-12-15T06:31:47.535Z,68.60
2022-12-15T06:34:19.226Z,62.08
2022-12-15T06:36:50.886Z,61.25
2022-12-15T06:39:22.454Z,64.43
2022-12-15T06:41:54.036Z,70.38
2022-12-15T06:44:28.562Z,64.05
2022-12-15T06:47:00.252Z,63.15
2022-12-15T06:49:32.052Z,58.88
2022-12-15T06:52:03.680Z,64.70
2022-12-15T06:54:35.245Z,61.92
2022-12-15T06:57:06.819Z,67.75
2022-12-15T06:59:39.212Z,61.08
2022-12-15T07:02:16.928Z,65.07
2022-12-15T07:04:48.663Z,68.30
2022-12-15T07:07:20.582Z,60.78
2022-12-15T07:09:52.154Z,65.50
2022-12-15T07:12:23.742Z,59.83
2022-12-15T07:14:55.310Z,63.20
2022-12-15T07:17:26.991Z,63.28
2022-12-15T07:19:58.572Z,67.03
2022-12-15T07:22:33.648Z,57.15
2022-12-15T07:25:05.814Z,59.53
2022-12-15T07:27:37.484Z,61.80
2022-12-15T07:30:09.533Z,64.30
2022-12-15T07:32:41.848Z,59.97
2022-12-15T07:35:13.449Z,64.90
2022-12-15T07:37:45.306Z,62.45
2022-12-15T07:40:17.533Z,61.70
2022-12-15T07:42:49.109Z,61.97
2022-12-15T07:45:21.879Z,62.00
2022-12-15T07:47:53.589Z,60.40
2022-12-15T07:50:25.164Z,59.28
2022-12-15T07:52:58.012Z,57.33
2022-12-15T07:55:57.356Z,56.08
2022-12-15T07:58:21.202Z,57.45
2022-12-15T08:01:01.861Z,57.85
2022-12-15T08:03:34.221Z,57.70
2022-12-15T08:06:08.201Z,62.13
2022-12-15T08:08:40.568Z,63.67
2022-12-15T08:11:14.685Z,60.58
2022-12-15T08:14:03.558Z,60.50
2022-12-15T08:16:36.948Z,60.35
2022-12-15T08:19:13.165Z,64.82
2022-12-15T08:21:46.777Z,60.88
2022-12-15T08:24:19.397Z,65.47
2022-12-15T08:26:51.006Z,60.30
2022-12-15T08:29:50.315Z,63.35
2022-12-15T08:32:16.855Z,59.08
2022-12-15T08:34:49.761Z,54.88
2022-12-15T08:37:21.402Z,55.42
2022-12-15T08:39:53.109Z,54.45
2022-12-15T08:42:24.804Z,57.15
2022-12-15T08:44:56.571Z,59.05
2022-12-15T08:47:28.236Z,55.47
2022-12-15T08:49:59.996Z,54.47
2022-12-15T08:52:31.881Z,51.33
2022-12-15T08:55:03.891Z,51.45
2022-12-15T08:57:43.166Z,49.70
2022-12-15T09:00:16.093Z,51.83
2022-12-15T09:02:47.823Z,51.92
2022-12-15T09:05:19.682Z,57.00
2022-12-15T09:08:04.654Z,52.90
2022-12-15T09:10:47.654Z,47.80
2022-12-15T09:13:24.908Z,52.33
2022-12-15T09:16:13.333Z,49.60
2022-12-15T09:18:47.944Z,48.58
2022-12-15T09:21:25.197Z,51.28
2022-12-15T09:24:00.877Z,49.50
2022-12-15T09:26:34.579Z,52.70
2022-12-15T09:29:06.320Z,45.58
2022-12-15T09:31:39.006Z,51.35
2022-12-15T09:34:14.990Z,47.30
2022-12-15T09:36:46.619Z,45.78
2022-12-15T09:39:18.487Z,49.45
2022-12-15T09:41:55.049Z,48.03
2022-12-15T09:44:28.980Z,48.20
2022-12-15T09:47:22.077Z,49.47
2022-12-15T09:49:59.229Z,48.03
2022-12-15T09:52:39.672Z,46.72
2022-12-15T09:55:23.264Z,50.85
2022-12-15T09:58:14.214Z,46.75
2022-12-15T10:00:58.166Z,49.90
2022-12-15T10:03:55.646Z,50.92
2022-12-15T10:06:35.980Z,48.47
2022-12-15T10:09:21.454Z,45.97
2022-12-15T10:12:11.954Z,50.70
2022-12-15T10:14:50.140Z,47.47
2022-12-15T10:17:26.246Z,48.60
2022-12-15T10:20:13.295Z,50.88
2022-12-15T10:22:45.126Z,47.45
2022-12-15T10:28:52.293Z,45.50
2022-12-15T10:31:45.135Z,48.42
2022-12-15T10:34:43.565Z,46.95
2022-12-15T10:37:18.924Z,43.40
2022-12-15T10:39:51.312Z,44.80
2022-12-15T10:42:27.196Z,45.90
2022-12-15T10:44:59.213Z,47.13
2022-12-15T10:47:32.075Z,47.78
2022-12-15T10:50:25.091Z,45.92
2022-12-15T10:52:57.073Z,48.03
2022-12-15T10:55:36.005Z,49.08
2022-12-15T10:58:20.746Z,45.47
2022-12-15T11:01:14.972Z,42.83
2022-12-15T11:03:51.507Z,44.30
2022-12-15T11:06:33.767Z,43.75
2022-12-15T11:09:35.885Z,42.58
2022-12-15T11:12:50.721Z,44.53
2022-12-15T11:15:22.377Z,44.60
2022-12-15T11:18:02.790Z,40.47
2022-12-15T11:20:38.489Z,44.72
2022-12-15T11:23:30.470Z,42.85
2022-12-15T11:26:14.085Z,42.58
2022-12-15T11:28:56.368Z,45.88
2022-12-15T11:31:40.248Z,40.72
2022-12-15T11:34:17.819Z,54.45
2022-12-15T11:37:14.677Z,57.97
2022-12-15T11:40:15.382Z,41.22
2022-12-15T11:42:52.865Z,42.22
2022-12-15T11:45:44.659Z,43.75
2022-12-15T11:48:21.283Z,41.15
2022-12-15T11:50:59.840Z,44.30
2022-12-15T11:53:50.298Z,42.08
2022-12-15T11:56:31.328Z,45.50
2022-12-15T11:59:21.245Z,44.83
2022-12-15T12:02:02.479Z,43.35
2022-12-15T12:04:58.077Z,46.88
2022-12-15T12:07:45.314Z,45.00
2022-12-15T12:10:44.997Z,44.83
2022-12-15T12:13:50.353Z,44.13
2022-12-15T12:16:30.759Z,50.60
2022-12-15T12:19:06.447Z,49.97
2022-12-15T12:21:44.970Z,52.13
2022-12-15T12:24:26.372Z,50.75
2022-12-15T12:27:22.467Z,53.40
2022-12-15T12:30:02.689Z,53.75
2022-12-15T12:32:59.899Z,54.17
2022-12-15T12:35:47.120Z,54.78
2022-12-15T12:38:29.322Z,55.78
2022-12-15T12:41:23.491Z,55.40
2022-12-15T12:43:58.218Z,50.00
2022-12-15T12:46:39.201Z,55.65
2022-12-15T12:49:33.419Z,62.95
2022-12-15T12:52:13.717Z,64.43
2022-12-15T12:55:01.988Z,67.55
2022-12-15T12:57:36.599Z,72.65
2022-12-15T13:00:08.216Z,76.15
2022-12-15T13:03:13.423Z,74.20
2022-12-15T13:05:50.428Z,78.22
2022-12-15T13:08:45.282Z,77.10
2022-12-15T13:11:45.475Z,78.45
2022-12-15T13:14:25.907Z,74.20
2022-12-15T13:17:26.062Z,80.63
2022-12-15T13:20:01.310Z,79.22
2022-12-15T13:25:35.838Z,84.43
2022-12-15T13:28:18.708Z,79.70
2022-12-15T13:31:21.324Z,79.45
2022-12-15T13:34:01.223Z,81.25
2022-12-15T13:36:42.030Z,79.72
2022-12-15T13:39:16.301Z,80.22
2022-12-15T13:42:23.765Z,78.00
2022-12-15T13:44:51.811Z,75.65
2022-12-15T13:47:28.022Z,84.20
2022-12-15T13:50:08.540Z,78.28
2022-12-15T13:56:07.098Z,83.13
2022-12-15T13:58:47.891Z,88.43
2022-12-15T14:01:30.153Z,84.57
2022-12-15T14:04:15.621Z,81.88
2022-12-15T14:07:00.738Z,86.88
2022-12-15T14:09:41.899Z,84.25
2022-12-15T14:12:14.166Z,80.75
2022-12-15T14:17:39.334Z,83.72
2022-12-15T14:20:17.922Z,86.32
2022-12-15T14:22:52.353Z,87.88
2022-12-15T14:25:29.663Z,85.82
2022-12-15T14:28:07.761Z,83.47
2022-12-15T14:30:42.380Z,81.78
2022-12-15T14:33:18.200Z,85.15
2022-12-15T14:35:53.498Z,89.13
2022-12-15T14:38:32.095Z,79.32
2022-12-15T14:41:06.115Z,76.88
2022-12-15T14:43:40.045Z,86.53
2022-12-15T14:46:18.706Z,85.95
2022-12-15T14:49:01.010Z,80.25
2022-12-15T14:51:44.183Z,81.40
2022-12-15T14:54:38.270Z,80.90
2022-12-15T14:57:15.362Z,83.85
2022-12-15T14:59:54.448Z,85.15
2022-12-15T15:02:29.562Z,87.63
2022-12-15T15:03:03.980Z,47.95
2022-12-15T15:05:04.693Z,81.47
2022-12-15T15:07:38.701Z,95.75
2022-12-15T15:10:27.954Z,87.78
2022-12-15T15:12:59.766Z,79.53
2022-12-15T15:15:31.482Z,81.80
2022-12-15T15:18:03.124Z,85.55
2022-12-15T15:20:35.986Z,88.30
2022-12-15T15:23:07.498Z,83.57
2022-12-15T15:25:41.570Z,90.25
2022-12-15T15:28:17.979Z,102.30
2022-12-15T15:30:59.315Z,91.32
2022-12-15T15:33:31.508Z,93.07
2022-12-15T15:36:04.311Z,89.57
2022-12-15T15:38:39.547Z,96.63
2022-12-15T15:41:14.011Z,95.57
2022-12-15T15:43:46.079Z,95.35
2022-12-15T15:46:27.687Z,101.68
2022-12-15T15:49:03.068Z,104.97
2022-12-15T15:51:38.253Z,105.63
2022-12-15T15:54:25.032Z,100.60
2022-12-15T15:56:56.647Z,108.45
2022-12-15T15:59:29.015Z,103.05
2022-12-15T16:02:02.180Z,103.82
2022-12-15T16:04:36.321Z,100.80
2022-12-15T16:07:20.693Z,110.40
2022-12-15T16:09:53.435Z,90.65
2022-12-15T16:12:33.472Z,105.22
2022-12-15T16:15:23.777Z,106.15
2022-12-15T16:17:55.522Z,102.95
2022-12-15T16:20:29.179Z,114.40
2022-12-15T16:23:05.584Z,112.30
2022-12-15T16:25:48.498Z,108.18
2022-12-15T16:28:25.114Z,112.82
2022-12-15T16:30:58.794Z,114.00
2022-12-15T16:33:30.440Z,105.43
2022-12-15T16:36:02.157Z,109.65
2022-12-15T16:38:34.214Z,105.68
2022-12-15T16:41:08.276Z,105.82
2022-12-15T16:43:46.031Z,112.20
2022-12-15T16:46:20.563Z,105.65
2022-12-15T16:48:52.297Z,111.60
2022-12-15T16:51:40.189Z,109.88
2022-12-15T16:54:24.297Z,108.70
2022-12-15T16:56:58.078Z,111.22
2022-12-15T16:59:34.326Z,116.40
2022-12-15T17:02:29.088Z,113.35
2022-12-15T17:05:00.938Z,104.80
2022-12-15T17:07:32.670Z,109.57
2022-12-15T17:10:05.461Z,118.70
2022-12-15T17:12:37.244Z,117.57
2022-12-15T17:15:20.608Z,111.00
2022-12-15T17:17:53.092Z,108.70
2022-12-15T17:20:30.040Z,109.20
2022-12-15T17:23:07.170Z,101.43
2022-12-15T17:28:36.725Z,112.80
2022-12-15T17:31:18.138Z,106.63
2022-12-15T17:33:49.864Z,101.68
2022-12-15T17:36:28.325Z,108.50
2022-12-15T17:39:01.239Z,103.90
2022-12-15T17:41:58.660Z,108.07
2022-12-15T17:44:36.245Z,105.45
2022-12-15T17:47:09.077Z,108.40
2022-12-15T17:49:41.729Z,106.22
2022-12-15T17:52:28.448Z,106.90
2022-12-15T17:55:04.290Z,107.47
2022-12-15T17:57:35.870Z,103.53
2022-12-15T18:00:22.359Z,108.45
2022-12-15T18:02:55.529Z,105.32
2022-12-15T18:05:30.885Z,114.15
2022-12-15T18:08:10.638Z,106.43
2022-12-15T18:10:42.754Z,110.95
2022-12-15T18:13:14.232Z,109.20
2022-12-15T18:15:47.116Z,98.90
2022-12-15T18:18:20.845Z,101.13
2022-12-15T18:20:57.007Z,93.50
2022-12-15T18:23:32.620Z,104.43
2022-12-15T18:26:07.529Z,99.38
2022-12-15T18:28:39.171Z,100.50
2022-12-15T18:31:17.645Z,100.45
2022-12-15T18:33:50.027Z,97.70
2022-12-15T18:36:22.559Z,97.05
2022-12-15T18:38:54.159Z,102.63
2022-12-15T18:41:26.457Z,99.47
2022-12-15T18:43:58.950Z,97.30
2022-12-15T18:46:31.003Z,92.72
2022-12-15T18:49:02.762Z,92.90
2022-12-15T18:51:34.530Z,96.20
2022-12-15T18:54:15.787Z,96.55
2022-12-15T18:56:48.357Z,70.13
2022-12-15T18:59:19.950Z,101.57
2022-12-15T19:01:51.756Z,87.60
2022-12-15T19:04:23.445Z,93.93
2022-12-15T19:06:55.378Z,93.25
2022-12-15T19:09:30.375Z,91.40
2022-12-15T19:14:55.203Z,84.20
2022-12-15T19:17:45.797Z,88.53
2022-12-15T19:20:38.587Z,92.50
2022-12-15T19:23:13.185Z,98.82
2022-12-15T19:25:46.760Z,89.90
2022-12-15T19:28:21.465Z,100.70
2022-12-15T19:30:53.169Z,97.82
2022-12-15T19:33:25.133Z,98.13
2022-12-15T19:35:57.705Z,92.90
2022-12-15T19:38:34.358Z,87.38
2022-12-15T19:41:05.949Z,93.80
2022-12-15T19:43:37.604Z,91.53
2022-12-15T19:46:20.415Z,90.60
2022-12-15T19:48:54.267Z,91.35
2022-12-15T19:51:26.225Z,86.38
2022-12-15T19:53:58.305Z,86.72
2022-12-15T19:56:30.290Z,88.65
2022-12-15T19:59:02.960Z,89.90
2022-12-15T20:01:34.773Z,90.53
2022-12-15T20:04:06.483Z,102.05
2022-12-15T20:06:38.576Z,95.70
2022-12-15T20:09:18.442Z,88.05
2022-12-15T20:11:50.043Z,94.80
2022-12-15T20:14:22.359Z,86.10
2022-12-15T20:16:54.035Z,91.35
2022-12-15T20:19:25.770Z,90.75
2022-12-15T20:22:01.600Z,80.18
2022-12-15T20:24:33.596Z,82.45
2022-12-15T20:27:12.287Z,86.70
2022-12-15T20:29:43.956Z,79.90
2022-12-15T20:32:19.424Z,83.75
2022-12-15T20:34:51.028Z,79.45
2022-12-15T20:37:28.894Z,77.60
2022-12-15T20:40:00.634Z,82.50
2022-12-15T20:42:32.184Z,88.85
2022-12-15T20:45:04.188Z,80.45
2022-12-15T20:47:39.951Z,76.18
2022-12-15T20:50:25.152Z,78.75
2022-12-15T20:55:28.684Z,77.20
2022-12-15T20:58:00.298Z,79.80
2022-12-15T21:00:32.277Z,82.78
2022-12-15T21:03:16.761Z,88.10
2022-12-15T21:05:49.659Z,89.93
2022-12-15T21:08:27.484Z,86.22
2022-12-15T21:11:13.780Z,87.70
2022-12-15T21:13:47.471Z,82.45
2022-12-15T21:16:22.753Z,88.10
2022-12-15T21:19:19.296Z,81.57
2022-12-15T21:21:52.011Z,83.63
2022-12-15T21:24:25.645Z,84.93
2022-12-15T21:26:57.349Z,81.70
2022-12-15T21:29:29.515Z,84.70
2022-12-15T21:32:01.165Z,80.40
2022-12-15T21:34:32.886Z,81.00
2022-12-15T21:37:06.365Z,82.15
2022-12-15T21:39:38.009Z,91.93
2022-12-15T21:42:16.158Z,84.13
2022-12-15T21:44:48.212Z,82.78
2022-12-15T21:47:48.855Z,84.65
2022-12-15T21:50:20.403Z,86.72
2022-12-15T21:52:52.223Z,83.80
2022-12-15T21:55:26.958Z,83.40
2022-12-15T22:00:30.189Z,83.32
2022-12-15T22:03:01.924Z,81.18
2022-12-15T22:05:33.684Z,87.38
2022-12-15T22:08:20.217Z,77.93
2022-12-15T22:10:52.146Z,86.43
2022-12-15T22:13:23.789Z,78.28
2022-12-15T22:15:55.466Z,79.70
2022-12-15T22:18:27.250Z,91.95
2022-12-15T22:20:58.810Z,86.47
2022-12-15T22:23:30.382Z,85.75
2022-12-15T22:26:02.101Z,88.25
2022-12-15T22:28:34.324Z,84.78
2022-12-15T22:31:06.756Z,86.65
2022-12-15T22:33:38.406Z,88.57
2022-12-15T22:36:09.994Z,82.25
2022-12-15T22:38:41.601Z,83.68
2022-12-15T22:41:19.466Z,83.72
2022-12-15T22:43:56.259Z,87.20
2022-12-15T22:46:27.976Z,91.38
2022-12-15T22:48:59.566Z,89.80
2022-12-15T22:51:31.133Z,83.10
2022-12-15T22:54:02.741Z,86.93
2022-12-15T22:56:38.208Z,89.18
2022-12-15T22:59:16.277Z,84.10
2022-12-15T23:01:47.984Z,84.68
2022-12-15T23:04:19.650Z,84.72
2022-12-15T23:06:51.712Z,79.05
2022-12-15T23:09:23.470Z,77.28
2022-12-15T23:11:55.724Z,80.32
2022-12-15T23:14:46.433Z,80.40
2022-12-15T23:17:17.987Z,75.85
2022-12-15T23:19:49.614Z,78.90
2022-12-15T23:22:21.521Z,74.93
2022-12-15T23:24:53.051Z,79.32
2022-12-15T23:27:24.624Z,75.70
2022-12-15T23:29:56.176Z,79.63
2022-12-15T23:32:27.720Z,78.55
2022-12-15T23:34:59.290Z,87.95
2022-12-15T23:37:30.904Z,76.75
2022-12-15T23:40:02.656Z,78.88
2022-12-15T23:42:35.258Z,79.78
2022-12-15T23:45:07.549Z,68.15
2022-12-15T23:47:39.960Z,80.53
2022-12-15T23:50:11.716Z,72.18
2022-12-15T23:52:43.280Z,74.70
2022-12-15T23:55:16.987Z,72.47
2022-12-15T23:57:48.579Z,70.95
